sensor_id;sensor_type;location;lat;lon;timestamp;pressure;altitude;pressure_sealevel;temperature;humidity
49949;BME280;35840;45.982;8.890;2023-07-13T00:01:32;98176.41;;;20.14;96.86
49949;BME280;35840;45.982;8.890;2023-07-13T00:03:59;98158.97;;;20.23;97.53
49949;BME280;35840;45.982;8.890;2023-07-13T00:06:26;98158.94;;;20.06;98.08
49949;BME280;35840;45.982;8.890;2023-07-13T00:08:56;98153.63;;;19.82;99.83
49949;BME280;35840;45.982;8.890;2023-07-13T00:11:23;98157.53;;;19.86;100.00
49949;BME280;35840;45.982;8.890;2023-07-13T00:13:51;98156.00;;;20.09;98.97
49949;BME280;35840;45.982;8.890;2023-07-13T00:16:18;98150.13;;;19.99;98.55
49949;BME280;35840;45.982;8.890;2023-07-13T00:18:46;98159.28;;;19.77;100.00
49949;BME280;35840;45.982;8.890;2023-07-13T00:21:13;98158.63;;;19.75;99.86
49949;BME280;35840;45.982;8.890;2023-07-13T00:23:41;98159.19;;;19.87;98.68
49949;BME280;35840;45.982;8.890;2023-07-13T00:26:09;98157.91;;;19.56;100.00
49949;BME280;35840;45.982;8.890;2023-07-13T00:28:38;98165.25;;;19.61;100.00
49949;BME280;35840;45.982;8.890;2023-07-13T00:31:07;98182.47;;;19.54;99.97
49949;BME280;35840;45.982;8.890;2023-07-13T00:33:35;98183.22;;;19.46;100.00
49949;BME280;35840;45.982;8.890;2023-07-13T00:36:02;98183.31;;;19.28;100.00
49949;BME280;35840;45.982;8.890;2023-07-13T00:38:30;98184.63;;;19.32;100.00
49949;BME280;35840;45.982;8.890;2023-07-13T00:40:57;98182.78;;;19.24;100.00
49949;BME280;35840;45.982;8.890;2023-07-13T00:43:26;98183.16;;;19.30;100.00
49949;BME280;35840;45.982;8.890;2023-07-13T00:46:09;98194.75;;;19.35;100.00
49949;BME280;35840;45.982;8.890;2023-07-13T00:48:37;98193.25;;;19.33;99.50
49949;BME280;35840;45.982;8.890;2023-07-13T00:51:05;98196.34;;;19.28;100.00
49949;BME280;35840;45.982;8.890;2023-07-13T00:53:33;98194.47;;;19.20;100.00
49949;BME280;35840;45.982;8.890;2023-07-13T00:56:01;98192.78;;;19.11;100.00
49949;BME280;35840;45.982;8.890;2023-07-13T00:58:29;98194.56;;;19.10;100.00
49949;BME280;35840;45.982;8.890;2023-07-13T01:00:56;98203.00;;;19.31;100.00
49949;BME280;35840;45.982;8.890;2023-07-13T01:03:23;98197.41;;;19.43;98.91
49949;BME280;35840;45.982;8.890;2023-07-13T01:05:52;98197.44;;;19.52;98.18
49949;BME280;35840;45.982;8.890;2023-07-13T01:08:21;98195.41;;;19.64;97.68
49949;BME280;35840;45.982;8.890;2023-07-13T01:10:56;98193.41;;;19.84;97.49
49949;BME280;35840;45.982;8.890;2023-07-13T01:13:24;98200.66;;;19.98;95.76
49949;BME280;35840;45.982;8.890;2023-07-13T01:15:52;98202.09;;;19.92;93.53
49949;BME280;35840;45.982;8.890;2023-07-13T01:18:25;98207.84;;;19.96;93.96
49949;BME280;35840;45.982;8.890;2023-07-13T01:20:56;98214.34;;;20.00;94.22
49949;BME280;35840;45.982;8.890;2023-07-13T01:23:24;98214.88;;;20.04;93.53
49949;BME280;35840;45.982;8.890;2023-07-13T01:25:52;98218.22;;;19.88;93.68
49949;BME280;35840;45.982;8.890;2023-07-13T01:28:19;98219.47;;;19.57;96.33
49949;BME280;35840;45.982;8.890;2023-07-13T01:30:46;98228.00;;;19.59;96.38
49949;BME280;35840;45.982;8.890;2023-07-13T01:33:17;98220.25;;;19.76;95.85
49949;BME280;35840;45.982;8.890;2023-07-13T01:35:46;98221.00;;;19.94;94.86
49949;BME280;35840;45.982;8.890;2023-07-13T01:38:17;98224.19;;;20.06;92.88
49949;BME280;35840;45.982;8.890;2023-07-13T01:40:44;98210.28;;;20.06;92.44
49949;BME280;35840;45.982;8.890;2023-07-13T01:43:11;98208.47;;;19.98;91.90
49949;BME280;35840;45.982;8.890;2023-07-13T01:45:39;98202.09;;;19.92;92.33
49949;BME280;35840;45.982;8.890;2023-07-13T01:48:06;98205.72;;;20.00;92.84
49949;BME280;35840;45.982;8.890;2023-07-13T01:50:34;98201.66;;;20.05;92.45
49949;BME280;35840;45.982;8.890;2023-07-13T01:53:01;98211.97;;;20.15;92.36
49949;BME280;35840;45.982;8.890;2023-07-13T01:55:29;98193.75;;;19.89;93.71
49949;BME280;35840;45.982;8.890;2023-07-13T01:57:56;98208.66;;;19.97;93.20
49949;BME280;35840;45.982;8.890;2023-07-13T02:00:23;98202.91;;;19.85;93.43
49949;BME280;35840;45.982;8.890;2023-07-13T02:02:51;98194.38;;;19.83;93.83
49949;BME280;35840;45.982;8.890;2023-07-13T02:05:18;98195.19;;;19.31;95.81
49949;BME280;35840;45.982;8.890;2023-07-13T02:07:46;98196.28;;;19.46;96.37
49949;BME280;35840;45.982;8.890;2023-07-13T02:10:13;98189.63;;;19.52;96.01
49949;BME280;35840;45.982;8.890;2023-07-13T02:12:41;98195.38;;;19.55;94.38
49949;BME280;35840;45.982;8.890;2023-07-13T02:15:09;98199.19;;;19.43;93.66
49949;BME280;35840;45.982;8.890;2023-07-13T02:17:36;98195.31;;;19.47;93.94
49949;BME280;35840;45.982;8.890;2023-07-13T02:20:04;98190.72;;;19.41;93.58
49949;BME280;35840;45.982;8.890;2023-07-13T02:22:31;98192.66;;;19.39;93.48
49949;BME280;35840;45.982;8.890;2023-07-13T02:24:58;98195.09;;;19.40;92.86
49949;BME280;35840;45.982;8.890;2023-07-13T02:27:25;98193.31;;;19.41;93.24
49949;BME280;35840;45.982;8.890;2023-07-13T02:29:52;98199.72;;;19.47;94.19
49949;BME280;35840;45.982;8.890;2023-07-13T02:32:20;98188.81;;;19.51;94.02
49949;BME280;35840;45.982;8.890;2023-07-13T02:34:48;98189.69;;;19.60;92.63
49949;BME280;35840;45.982;8.890;2023-07-13T02:37:15;98184.25;;;19.53;92.69
49949;BME280;35840;45.982;8.890;2023-07-13T02:39:42;98185.66;;;19.39;94.00
49949;BME280;35840;45.982;8.890;2023-07-13T02:42:09;98175.91;;;19.23;95.22
49949;BME280;35840;45.982;8.890;2023-07-13T02:44:36;98183.16;;;19.30;95.28
49949;BME280;35840;45.982;8.890;2023-07-13T02:47:03;98182.22;;;19.39;94.32
49949;BME280;35840;45.982;8.890;2023-07-13T02:49:30;98178.34;;;19.43;92.84
49949;BME280;35840;45.982;8.890;2023-07-13T02:51:57;98177.75;;;19.49;91.76
49949;BME280;35840;45.982;8.890;2023-07-13T02:54:24;98187.50;;;19.47;91.10
49949;BME280;35840;45.982;8.890;2023-07-13T02:56:51;98180.69;;;19.28;92.88
49949;BME280;35840;45.982;8.890;2023-07-13T02:59:18;98176.06;;;19.22;93.51
49949;BME280;35840;45.982;8.890;2023-07-13T03:01:45;98175.34;;;19.30;92.64
49949;BME280;35840;45.982;8.890;2023-07-13T03:04:12;98172.09;;;19.36;91.59
49949;BME280;35840;45.982;8.890;2023-07-13T03:06:39;98173.03;;;19.26;91.23
49949;BME280;35840;45.982;8.890;2023-07-13T03:09:06;98179.00;;;19.19;91.95
49949;BME280;35840;45.982;8.890;2023-07-13T03:11:36;98175.97;;;19.05;93.48
49949;BME280;35840;45.982;8.890;2023-07-13T03:14:16;98170.53;;;18.99;93.96
49949;BME280;35840;45.982;8.890;2023-07-13T03:16:43;98163.66;;;19.16;93.30
49949;BME280;35840;45.982;8.890;2023-07-13T03:19:10;98169.13;;;19.31;92.69
49949;BME280;35840;45.982;8.890;2023-07-13T03:21:36;98178.25;;;19.26;92.57
49949;BME280;35840;45.982;8.890;2023-07-13T03:24:03;98175.38;;;19.12;91.46
49949;BME280;35840;45.982;8.890;2023-07-13T03:26:30;98179.31;;;19.16;92.38
49949;BME280;35840;45.982;8.890;2023-07-13T03:28:58;98181.22;;;19.14;92.07
49949;BME280;35840;45.982;8.890;2023-07-13T03:31:27;98190.84;;;18.77;94.29
49949;BME280;35840;45.982;8.890;2023-07-13T03:33:56;98196.34;;;18.56;96.70
49949;BME280;35840;45.982;8.890;2023-07-13T03:36:26;98188.91;;;18.61;97.14
49949;BME280;35840;45.982;8.890;2023-07-13T03:38:58;98187.09;;;18.80;95.96
49949;BME280;35840;45.982;8.890;2023-07-13T03:41:33;98188.44;;;18.84;95.70
49949;BME280;35840;45.982;8.890;2023-07-13T03:44:00;98193.22;;;18.70;96.49
49949;BME280;35840;45.982;8.890;2023-07-13T03:46:27;98195.47;;;18.47;96.46
49949;BME280;35840;45.982;8.890;2023-07-13T03:48:55;98204.97;;;18.56;96.54
49949;BME280;35840;45.982;8.890;2023-07-13T03:51:22;98204.25;;;18.64;96.54
49949;BME280;35840;45.982;8.890;2023-07-13T03:53:49;98207.13;;;18.79;96.12
49949;BME280;35840;45.982;8.890;2023-07-13T03:56:18;98209.25;;;18.93;95.13
49949;BME280;35840;45.982;8.890;2023-07-13T03:58:48;98203.97;;;19.03;93.19
49949;BME280;35840;45.982;8.890;2023-07-13T04:01:21;98198.50;;;19.15;93.81
49949;BME280;35840;45.982;8.890;2023-07-13T04:03:48;98199.91;;;19.27;92.95
49949;BME280;35840;45.982;8.890;2023-07-13T04:06:18;98195.19;;;19.31;91.99
49949;BME280;35840;45.982;8.890;2023-07-13T04:08:52;98204.56;;;19.41;91.75
49949;BME280;35840;45.982;8.890;2023-07-13T04:11:20;98211.56;;;19.41;90.99
49949;BME280;35840;45.982;8.890;2023-07-13T04:13:48;98209.97;;;19.22;91.36
49949;BME280;35840;45.982;8.890;2023-07-13T04:16:16;98207.50;;;19.20;91.59
49949;BME280;35840;45.982;8.890;2023-07-13T04:18:43;98204.59;;;19.23;91.76
49949;BME280;35840;45.982;8.890;2023-07-13T04:21:11;98210.19;;;19.29;91.62
49949;BME280;35840;45.982;8.890;2023-07-13T04:23:38;98210.81;;;19.04;92.60
49949;BME280;35840;45.982;8.890;2023-07-13T04:26:06;98219.47;;;18.87;93.96
49949;BME280;35840;45.982;8.890;2023-07-13T04:28:33;98213.53;;;18.85;94.43
49949;BME280;35840;45.982;8.890;2023-07-13T04:31:00;98212.06;;;19.00;93.58
49949;BME280;35840;45.982;8.890;2023-07-13T04:33:27;98213.34;;;18.96;93.00
49949;BME280;35840;45.982;8.890;2023-07-13T04:35:55;98215.06;;;18.87;94.73
49949;BME280;35840;45.982;8.890;2023-07-13T04:38:28;98214.25;;;18.87;94.64
49949;BME280;35840;45.982;8.890;2023-07-13T04:40:57;98205.69;;;18.95;94.70
49949;BME280;35840;45.982;8.890;2023-07-13T04:43:25;98211.22;;;19.18;94.20
49949;BME280;35840;45.982;8.890;2023-07-13T04:45:53;98216.00;;;19.22;92.78
49949;BME280;35840;45.982;8.890;2023-07-13T04:48:20;98207.97;;;19.16;93.11
49949;BME280;35840;45.982;8.890;2023-07-13T04:50:47;98231.50;;;19.24;93.16
49949;BME280;35840;45.982;8.890;2023-07-13T04:53:14;98215.09;;;19.14;92.51
49949;BME280;35840;45.982;8.890;2023-07-13T04:55:41;98215.06;;;19.05;92.64
49949;BME280;35840;45.982;8.890;2023-07-13T04:58:07;98218.31;;;19.25;92.77
49949;BME280;35840;45.982;8.890;2023-07-13T05:00:34;98219.84;;;19.36;92.89
49949;BME280;35840;45.982;8.890;2023-07-13T05:03:02;98222.03;;;19.23;94.07
49949;BME280;35840;45.982;8.890;2023-07-13T05:05:30;98225.09;;;19.18;95.32
49949;BME280;35840;45.982;8.890;2023-07-13T05:07:56;98222.44;;;19.36;95.04
49949;BME280;35840;45.982;8.890;2023-07-13T05:10:23;98223.38;;;19.53;93.67
49949;BME280;35840;45.982;8.890;2023-07-13T05:12:50;98227.56;;;19.46;93.76
49949;BME280;35840;45.982;8.890;2023-07-13T05:15:18;98231.66;;;19.22;95.24
49949;BME280;35840;45.982;8.890;2023-07-13T05:17:48;98239.81;;;19.27;95.96
49949;BME280;35840;45.982;8.890;2023-07-13T05:20:16;98234.56;;;19.46;94.70
49949;BME280;35840;45.982;8.890;2023-07-13T05:22:45;98230.53;;;19.51;95.38
49949;BME280;35840;45.982;8.890;2023-07-13T05:25:13;98230.13;;;19.64;94.49
49949;BME280;35840;45.982;8.890;2023-07-13T05:27:40;98242.00;;;19.58;96.26
49949;BME280;35840;45.982;8.890;2023-07-13T05:30:07;98241.78;;;19.52;97.35
49949;BME280;35840;45.982;8.890;2023-07-13T05:32:37;98243.41;;;19.26;98.42
49949;BME280;35840;45.982;8.890;2023-07-13T05:35:05;98244.84;;;19.47;97.03
49949;BME280;35840;45.982;8.890;2023-07-13T05:37:33;98244.28;;;19.61;95.79
49949;BME280;35840;45.982;8.890;2023-07-13T05:39:59;98254.16;;;19.76;94.73
49949;BME280;35840;45.982;8.890;2023-07-13T05:42:26;98246.06;;;19.79;94.97
49949;BME280;35840;45.982;8.890;2023-07-13T05:44:53;98239.69;;;19.82;94.04
49949;BME280;35840;45.982;8.890;2023-07-13T05:47:20;98240.31;;;20.02;93.28
49949;BME280;35840;45.982;8.890;2023-07-13T05:49:47;98241.81;;;20.12;92.45
49949;BME280;35840;45.982;8.890;2023-07-13T05:52:13;98241.50;;;20.16;92.90
49949;BME280;35840;45.982;8.890;2023-07-13T05:54:40;98241.00;;;20.12;93.52
49949;BME280;35840;45.982;8.890;2023-07-13T05:57:07;98235.28;;;20.08;95.07
49949;BME280;35840;45.982;8.890;2023-07-13T05:59:35;98240.38;;;20.18;94.67
49949;BME280;35840;45.982;8.890;2023-07-13T06:02:02;98244.66;;;20.27;94.11
49949;BME280;35840;45.982;8.890;2023-07-13T06:04:29;98247.13;;;20.29;93.41
49949;BME280;35840;45.982;8.890;2023-07-13T06:06:55;98244.19;;;20.32;92.86
49949;BME280;35840;45.982;8.890;2023-07-13T06:09:22;98244.22;;;20.40;91.61
49949;BME280;35840;45.982;8.890;2023-07-13T06:11:49;98242.75;;;20.46;91.46
49949;BME280;35840;45.982;8.890;2023-07-13T06:14:15;98240.97;;;20.55;90.37
49949;BME280;35840;45.982;8.890;2023-07-13T06:16:42;98244.75;;;20.60;90.15
49949;BME280;35840;45.982;8.890;2023-07-13T06:19:09;98245.78;;;20.25;90.94
49949;BME280;35840;45.982;8.890;2023-07-13T06:21:36;98234.75;;;20.39;90.61
49949;BME280;35840;45.982;8.890;2023-07-13T06:24:03;98236.34;;;20.32;90.38
49949;BME280;35840;45.982;8.890;2023-07-13T06:26:30;98242.75;;;20.46;89.91
49949;BME280;35840;45.982;8.890;2023-07-13T06:28:56;98247.84;;;20.56;90.40
49949;BME280;35840;45.982;8.890;2023-07-13T06:31:23;98248.69;;;20.64;90.37
49949;BME280;35840;45.982;8.890;2023-07-13T06:33:50;98258.94;;;20.58;91.16
49949;BME280;35840;45.982;8.890;2023-07-13T06:36:17;98250.78;;;20.53;88.67
49949;BME280;35840;45.982;8.890;2023-07-13T06:38:43;98248.06;;;20.28;89.79
49949;BME280;35840;45.982;8.890;2023-07-13T06:41:10;98258.91;;;20.50;89.27
49949;BME280;35840;45.982;8.890;2023-07-13T06:43:37;98269.41;;;20.66;88.87
49949;BME280;35840;45.982;8.890;2023-07-13T06:46:04;98272.41;;;20.79;88.86
49949;BME280;35840;45.982;8.890;2023-07-13T06:48:31;98257.06;;;20.85;89.87
49949;BME280;35840;45.982;8.890;2023-07-13T06:50:58;98258.91;;;20.92;90.18
49949;BME280;35840;45.982;8.890;2023-07-13T06:53:25;98260.84;;;20.98;90.66
49949;BME280;35840;45.982;8.890;2023-07-13T06:55:51;98265.44;;;21.05;91.10
49949;BME280;35840;45.982;8.890;2023-07-13T06:58:18;98273.13;;;21.14;91.52
49949;BME280;35840;45.982;8.890;2023-07-13T07:00:46;98275.22;;;21.19;91.08
49949;BME280;35840;45.982;8.890;2023-07-13T07:03:16;98268.53;;;21.25;91.19
49949;BME280;35840;45.982;8.890;2023-07-13T07:05:43;98274.09;;;21.30;90.76
49949;BME280;35840;45.982;8.890;2023-07-13T07:08:10;98260.53;;;21.35;90.92
49949;BME280;35840;45.982;8.890;2023-07-13T07:10:37;98257.94;;;21.10;87.71
49949;BME280;35840;45.982;8.890;2023-07-13T07:13:04;98254.31;;;20.94;86.14
49949;BME280;35840;45.982;8.890;2023-07-13T07:15:30;98244.50;;;20.96;84.66
49949;BME280;35840;45.982;8.890;2023-07-13T07:17:57;98246.97;;;21.14;85.66
49949;BME280;35840;45.982;8.890;2023-07-13T07:20:24;98248.44;;;21.25;89.58
49949;BME280;35840;45.982;8.890;2023-07-13T07:22:51;98256.44;;;21.32;88.74
49949;BME280;35840;45.982;8.890;2023-07-13T07:25:18;98254.66;;;21.41;89.29
49949;BME280;35840;45.982;8.890;2023-07-13T07:27:45;98244.34;;;21.47;89.76
49949;BME280;35840;45.982;8.890;2023-07-13T07:30:15;98246.16;;;21.55;89.29
49949;BME280;35840;45.982;8.890;2023-07-13T07:32:44;98240.09;;;21.63;88.58
49949;BME280;35840;45.982;8.890;2023-07-13T07:35:14;98243.56;;;21.55;86.98
49949;BME280;35840;45.982;8.890;2023-07-13T07:37:41;98245.66;;;21.60;86.37
49949;BME280;35840;45.982;8.890;2023-07-13T07:40:10;98248.09;;;21.70;86.73
49949;BME280;35840;45.982;8.890;2023-07-13T07:42:40;98244.97;;;21.82;86.89
49949;BME280;35840;45.982;8.890;2023-07-13T07:45:07;98243.47;;;21.88;86.95
49949;BME280;35840;45.982;8.890;2023-07-13T07:47:34;98238.91;;;21.90;87.11
49949;BME280;35840;45.982;8.890;2023-07-13T07:50:01;98243.28;;;21.98;85.05
49949;BME280;35840;45.982;8.890;2023-07-13T07:52:27;98231.34;;;21.95;86.53
49949;BME280;35840;45.982;8.890;2023-07-13T07:54:54;98231.34;;;21.95;85.53
49949;BME280;35840;45.982;8.890;2023-07-13T07:57:24;98231.16;;;21.97;83.12
49949;BME280;35840;45.982;8.890;2023-07-13T07:59:53;98230.81;;;22.00;81.57
49949;BME280;35840;45.982;8.890;2023-07-13T08:02:24;98233.31;;;22.01;79.94
49949;BME280;35840;45.982;8.890;2023-07-13T08:04:54;98224.78;;;21.99;77.64
49949;BME280;35840;45.982;8.890;2023-07-13T08:07:23;98222.13;;;22.16;78.48
49949;BME280;35840;45.982;8.890;2023-07-13T08:09:53;98229.75;;;22.26;80.28
49949;BME280;35840;45.982;8.890;2023-07-13T08:12:20;98230.22;;;22.29;80.43
49949;BME280;35840;45.982;8.890;2023-07-13T08:14:50;98227.44;;;22.31;79.12
49949;BME280;35840;45.982;8.890;2023-07-13T08:17:20;98242.84;;;22.34;79.23
49949;BME280;35840;45.982;8.890;2023-07-13T08:19:47;98230.53;;;22.43;81.65
49949;BME280;35840;45.982;8.890;2023-07-13T08:22:14;98231.75;;;22.55;82.22
49949;BME280;35840;45.982;8.890;2023-07-13T08:24:41;98233.53;;;22.63;81.03
49949;BME280;35840;45.982;8.890;2023-07-13T08:27:11;98229.41;;;22.68;79.95
49949;BME280;35840;45.982;8.890;2023-07-13T08:29:39;98228.50;;;22.76;77.80
49949;BME280;35840;45.982;8.890;2023-07-13T08:32:07;98228.69;;;22.75;74.38
49949;BME280;35840;45.982;8.890;2023-07-13T08:34:37;98218.78;;;22.62;79.79
49949;BME280;35840;45.982;8.890;2023-07-13T08:37:07;98226.13;;;22.66;77.95
49949;BME280;35840;45.982;8.890;2023-07-13T08:39:33;98220.19;;;22.73;80.21
49949;BME280;35840;45.982;8.890;2023-07-13T08:42:05;98227.97;;;22.81;78.69
49949;BME280;35840;45.982;8.890;2023-07-13T08:47:15;98220.78;;;22.83;78.35
49949;BME280;35840;45.982;8.890;2023-07-13T08:49:44;98235.38;;;23.00;78.66
49949;BME280;35840;45.982;8.890;2023-07-13T08:52:17;98228.34;;;23.01;77.42
49949;BME280;35840;45.982;8.890;2023-07-13T08:54:50;98236.84;;;23.03;75.49
49949;BME280;35840;45.982;8.890;2023-07-13T08:57:21;98237.19;;;23.00;75.74
49949;BME280;35840;45.982;8.890;2023-07-13T08:59:51;98233.91;;;22.98;77.33
49949;BME280;35840;45.982;8.890;2023-07-13T09:02:34;98234.28;;;22.95;78.71
49949;BME280;35840;45.982;8.890;2023-07-13T09:08:01;98238.94;;;23.08;77.67
49949;BME280;35840;45.982;8.890;2023-07-13T09:10:41;98228.16;;;23.02;74.18
49949;BME280;35840;45.982;8.890;2023-07-13T09:15:45;98225.50;;;23.11;78.16
49949;BME280;35840;45.982;8.890;2023-07-13T09:18:35;98238.38;;;23.20;77.79
49949;BME280;35840;45.982;8.890;2023-07-13T09:21:10;98234.75;;;23.21;77.84
49949;BME280;35840;45.982;8.890;2023-07-13T09:23:40;98236.22;;;23.24;75.01
49949;BME280;35840;45.982;8.890;2023-07-13T09:26:18;98239.31;;;23.28;70.63
49949;BME280;35840;45.982;8.890;2023-07-13T09:29:28;98238.66;;;23.26;67.90
49949;BME280;35840;45.982;8.890;2023-07-13T09:31:45;98239.56;;;23.33;70.10
49949;BME280;35840;45.982;8.890;2023-07-13T09:34:14;98244.41;;;23.44;69.27
49949;BME280;35840;45.982;8.890;2023-07-13T09:36:41;98243.97;;;23.55;71.67
49949;BME280;35840;45.982;8.890;2023-07-13T09:44:29;98256.03;;;23.80;74.28
49949;BME280;35840;45.982;8.890;2023-07-13T09:46:58;98262.38;;;23.70;73.06
49949;BME280;35840;45.982;8.890;2023-07-13T09:49:42;98263.72;;;23.66;69.80
49949;BME280;35840;45.982;8.890;2023-07-13T09:52:15;98258.22;;;23.76;74.89
49949;BME280;35840;45.982;8.890;2023-07-13T09:54:48;98246.69;;;23.77;76.94
49949;BME280;35840;45.982;8.890;2023-07-13T09:57:18;98257.06;;;23.94;76.73
49949;BME280;35840;45.982;8.890;2023-07-13T09:59:51;98242.09;;;24.09;75.33
49949;BME280;35840;45.982;8.890;2023-07-13T10:02:28;98247.97;;;24.26;75.42
49949;BME280;35840;45.982;8.890;2023-07-13T10:05:03;98252.50;;;24.32;74.79
49949;BME280;35840;45.982;8.890;2023-07-13T10:07:31;98259.47;;;24.40;75.85
49949;BME280;35840;45.982;8.890;2023-07-13T10:10:00;98263.06;;;24.54;75.77
49949;BME280;35840;45.982;8.890;2023-07-13T10:12:29;98265.94;;;24.59;77.01
49949;BME280;35840;45.982;8.890;2023-07-13T10:15:01;98253.72;;;24.66;79.04
49949;BME280;35840;45.982;8.890;2023-07-13T10:17:49;98252.16;;;24.72;74.95
49949;BME280;35840;45.982;8.890;2023-07-13T10:20:18;98246.72;;;24.73;72.53
49949;BME280;35840;45.982;8.890;2023-07-13T10:25:29;98250.28;;;24.87;71.55
49949;BME280;35840;45.982;8.890;2023-07-13T10:28:03;98255.16;;;24.90;71.62
49949;BME280;35840;45.982;8.890;2023-07-13T10:30:35;98245.66;;;24.89;71.26
49949;BME280;35840;45.982;8.890;2023-07-13T10:33:12;98239.34;;;25.05;73.67
49949;BME280;35840;45.982;8.890;2023-07-13T10:35:42;98237.56;;;25.13;73.71
49949;BME280;35840;45.982;8.890;2023-07-13T10:38:21;98245.88;;;25.16;69.67
49949;BME280;35840;45.982;8.890;2023-07-13T10:41:03;98233.44;;;25.25;70.56
49949;BME280;35840;45.982;8.890;2023-07-13T10:43:36;98235.00;;;25.41;68.01
49949;BME280;35840;45.982;8.890;2023-07-13T10:46:07;98237.03;;;25.46;69.61
49949;BME280;35840;45.982;8.890;2023-07-13T10:48:35;98231.16;;;25.43;70.13
49949;BME280;35840;45.982;8.890;2023-07-13T10:51:05;98242.56;;;25.51;69.06
49949;BME280;35840;45.982;8.890;2023-07-13T10:53:35;98248.00;;;25.49;69.35
49949;BME280;35840;45.982;8.890;2023-07-13T10:56:05;98248.81;;;25.50;68.50
49949;BME280;35840;45.982;8.890;2023-07-13T10:58:40;98239.25;;;25.42;67.62
49949;BME280;35840;45.982;8.890;2023-07-13T11:01:17;98228.22;;;25.10;64.83
49949;BME280;35840;45.982;8.890;2023-07-13T11:03:50;98236.63;;;24.99;67.74
49949;BME280;35840;45.982;8.890;2023-07-13T11:06:37;98241.25;;;24.75;68.76
49949;BME280;35840;45.982;8.890;2023-07-13T11:15:01;98252.13;;;24.35;69.76
49949;BME280;35840;45.982;8.890;2023-07-13T11:17:47;98253.03;;;24.28;71.88
49949;BME280;35840;45.982;8.890;2023-07-13T11:22:50;98265.22;;;23.99;67.04
49949;BME280;35840;45.982;8.890;2023-07-13T11:25:27;98260.41;;;24.02;66.60
49949;BME280;35840;45.982;8.890;2023-07-13T11:33:25;98253.94;;;23.75;67.67
49949;BME280;35840;45.982;8.890;2023-07-13T11:38:31;98265.59;;;23.58;69.17
49949;BME280;35840;45.982;8.890;2023-07-13T11:41:03;98275.19;;;23.50;69.37
49949;BME280;35840;45.982;8.890;2023-07-13T11:43:30;98274.41;;;23.42;69.46
49949;BME280;35840;45.982;8.890;2023-07-13T11:46:30;98288.25;;;23.35;69.66
49949;BME280;35840;45.982;8.890;2023-07-13T11:48:57;98287.16;;;23.30;70.08
49949;BME280;35840;45.982;8.890;2023-07-13T11:51:35;98294.50;;;23.34;70.51
49949;BME280;35840;45.982;8.890;2023-07-13T11:54:05;98286.84;;;23.25;71.40
49949;BME280;35840;45.982;8.890;2023-07-13T11:56:34;98281.34;;;23.19;73.14
49949;BME280;35840;45.982;8.890;2023-07-13T11:59:07;98269.59;;;23.07;73.49
49949;BME280;35840;45.982;8.890;2023-07-13T12:01:36;98277.63;;;23.06;73.89
49949;BME280;35840;45.982;8.890;2023-07-13T12:04:24;98290.81;;;22.97;73.71
49949;BME280;35840;45.982;8.890;2023-07-13T12:07:07;98289.88;;;22.90;74.51
49949;BME280;35840;45.982;8.890;2023-07-13T12:09:36;98288.06;;;22.91;74.66
49949;BME280;35840;45.982;8.890;2023-07-13T12:12:08;98301.50;;;22.87;74.68
49949;BME280;35840;45.982;8.890;2023-07-13T12:14:36;98306.13;;;22.85;75.65
49949;BME280;35840;45.982;8.890;2023-07-13T12:17:12;98296.63;;;22.84;75.48
49949;BME280;35840;45.982;8.890;2023-07-13T12:19:41;98305.94;;;22.87;75.53
49949;BME280;35840;45.982;8.890;2023-07-13T12:22:10;98301.16;;;22.91;75.74
49949;BME280;35840;45.982;8.890;2023-07-13T12:24:42;98295.75;;;22.92;75.68
49949;BME280;35840;45.982;8.890;2023-07-13T12:27:25;98301.81;;;22.93;76.56
49949;BME280;35840;45.982;8.890;2023-07-13T12:29:57;98299.03;;;22.94;76.12
49949;BME280;35840;45.982;8.890;2023-07-13T12:32:26;98303.09;;;22.97;75.29
49949;BME280;35840;45.982;8.890;2023-07-13T12:35:14;98298.78;;;23.04;75.00
49949;BME280;35840;45.982;8.890;2023-07-13T12:37:46;98295.81;;;23.07;78.78
49949;BME280;35840;45.982;8.890;2023-07-13T12:40:18;98289.09;;;23.13;78.51
49949;BME280;35840;45.982;8.890;2023-07-13T12:42:50;98289.66;;;23.23;75.15
49949;BME280;35840;45.982;8.890;2023-07-13T12:45:23;98282.06;;;23.51;69.25
49949;BME280;35840;45.982;8.890;2023-07-13T12:47:56;98281.19;;;23.74;66.25
49949;BME280;35840;45.982;8.890;2023-07-13T12:50:34;98269.56;;;23.92;67.37
49949;BME280;35840;45.982;8.890;2023-07-13T12:53:05;98283.34;;;24.09;67.05
49949;BME280;35840;45.982;8.890;2023-07-13T12:55:47;98283.69;;;24.20;67.31
49949;BME280;35840;45.982;8.890;2023-07-13T12:58:38;98276.69;;;24.28;65.72
49949;BME280;35840;45.982;8.890;2023-07-13T13:01:05;98277.31;;;24.45;65.25
49949;BME280;35840;45.982;8.890;2023-07-13T13:03:46;98274.56;;;24.53;63.01
49949;BME280;35840;45.982;8.890;2023-07-13T13:08:46;98275.81;;;24.72;62.14
49949;BME280;35840;45.982;8.890;2023-07-13T13:11:15;98276.16;;;24.84;62.74
49949;BME280;35840;45.982;8.890;2023-07-13T13:13:43;98271.09;;;24.82;60.33
49949;BME280;35840;45.982;8.890;2023-07-13T13:18:55;98263.81;;;24.84;59.80
49949;BME280;35840;45.982;8.890;2023-07-13T13:21:24;98258.81;;;24.89;61.26
49949;BME280;35840;45.982;8.890;2023-07-13T13:23:52;98260.94;;;25.01;61.91
49949;BME280;35840;45.982;8.890;2023-07-13T13:26:22;98255.31;;;25.04;59.24
49949;BME280;35840;45.982;8.890;2023-07-13T13:28:49;98250.66;;;25.06;58.31
49949;BME280;35840;45.982;8.890;2023-07-13T13:31:16;98251.09;;;25.09;58.54
49949;BME280;35840;45.982;8.890;2023-07-13T13:33:44;98246.25;;;25.13;58.64
49949;BME280;35840;45.982;8.890;2023-07-13T13:36:17;98243.69;;;25.20;58.23
49949;BME280;35840;45.982;8.890;2023-07-13T13:38:47;98245.53;;;25.19;57.38
49949;BME280;35840;45.982;8.890;2023-07-13T13:41:15;98233.97;;;25.20;57.08
49949;BME280;35840;45.982;8.890;2023-07-13T13:43:42;98248.00;;;25.27;55.54
49949;BME280;35840;45.982;8.890;2023-07-13T13:46:19;98236.75;;;25.34;54.97
49949;BME280;35840;45.982;8.890;2023-07-13T13:48:48;98216.19;;;25.44;55.98
49949;BME280;35840;45.982;8.890;2023-07-13T13:51:20;98222.88;;;25.47;54.93